sensor_id;sensor_type;location;lat;lon;timestamp;pressure;altitude;pressure_sealevel;temperature;humidity
74228;BME280;62587;52.352;5.006;2023-03-01T00:01:31;103201.59;;;19.76;33.36
74228;BME280;62587;52.352;5.006;2023-03-01T00:03:57;103202.69;;;19.69;33.31
74228;BME280;62587;52.352;5.006;2023-03-01T00:06:24;103187.78;;;19.64;33.16
74228;BME280;62587;52.352;5.006;2023-03-01T00:08:50;103194.06;;;19.61;33.12
74228;BME280;62587;52.352;5.006;2023-03-01T00:11:21;103200.31;;;19.60;33.28
74228;BME280;62587;52.352;5.006;2023-03-01T00:13:49;103194.31;;;19.54;33.40
74228;BME280;62587;52.352;5.006;2023-03-01T00:16:19;103186.44;;;19.51;33.16
74228;BME280;62587;52.352;5.006;2023-03-01T00:18:45;103190.16;;;19.45;33.16
74228;BME280;62587;52.352;5.006;2023-03-01T00:21:11;103185.78;;;19.43;33.30
74228;BME280;62587;52.352;5.006;2023-03-01T00:23:37;103185.72;;;19.44;33.22
74228;BME280;62587;52.352;5.006;2023-03-01T00:26:07;103184.00;;;19.43;33.16
74228;BME280;62587;52.352;5.006;2023-03-01T00:28:32;103180.66;;;19.35;33.36
74228;BME280;62587;52.352;5.006;2023-03-01T00:31:09;103184.28;;;19.32;33.43
74228;BME280;62587;52.352;5.006;2023-03-01T00:33:35;103174.66;;;19.28;32.89
74228;BME280;62587;52.352;5.006;2023-03-01T00:36:01;103172.97;;;19.26;33.03
74228;BME280;62587;52.352;5.006;2023-03-01T00:38:27;103176.44;;;19.28;33.34
74228;BME280;62587;52.352;5.006;2023-03-01T00:40:52;103171.06;;;19.29;33.34
74228;BME280;62587;52.352;5.006;2023-03-01T00:43:18;103172.16;;;19.24;32.85
74228;BME280;62587;52.352;5.006;2023-03-01T00:45:43;103170.47;;;19.20;33.23
74228;BME280;62587;52.352;5.006;2023-03-01T00:48:09;103170.47;;;19.20;32.93
74228;BME280;62587;52.352;5.006;2023-03-01T00:50:34;103165.97;;;19.22;32.89
74228;BME280;62587;52.352;5.006;2023-03-01T00:52:59;103163.47;;;19.17;33.25
74228;BME280;62587;52.352;5.006;2023-03-01T00:55:25;103159.09;;;19.16;33.22
74228;BME280;62587;52.352;5.006;2023-03-01T00:57:51;103162.63;;;19.15;33.17
74228;BME280;62587;52.352;5.006;2023-03-01T01:00:17;103153.03;;;19.11;32.88
74228;BME280;62587;52.352;5.006;2023-03-01T01:02:43;103160.03;;;19.14;32.88
74228;BME280;62587;52.352;5.006;2023-03-01T01:05:08;103161.00;;;19.11;32.89
74228;BME280;62587;52.352;5.006;2023-03-01T01:07:34;103162.72;;;19.12;33.13
74228;BME280;62587;52.352;5.006;2023-03-01T01:09:59;103157.53;;;19.08;32.77
74228;BME280;62587;52.352;5.006;2023-03-01T01:12:25;103160.13;;;19.11;32.70
74228;BME280;62587;52.352;5.006;2023-03-01T01:14:50;103154.03;;;19.07;33.03
74228;BME280;62587;52.352;5.006;2023-03-01T01:17:15;103154.06;;;19.06;32.83
74228;BME280;62587;52.352;5.006;2023-03-01T01:19:41;103145.22;;;19.05;33.07
74228;BME280;62587;52.352;5.006;2023-03-01T01:22:07;103148.72;;;19.07;32.78
74228;BME280;62587;52.352;5.006;2023-03-01T01:24:32;103147.84;;;19.07;32.63
74228;BME280;62587;52.352;5.006;2023-03-01T01:26:57;103138.06;;;19.09;32.65
74228;BME280;62587;52.352;5.006;2023-03-01T01:29:23;103129.22;;;19.08;32.82
74228;BME280;62587;52.352;5.006;2023-03-01T01:31:48;103129.28;;;19.05;32.77
74228;BME280;62587;52.352;5.006;2023-03-01T01:34:19;103125.81;;;19.03;32.81
74228;BME280;62587;52.352;5.006;2023-03-01T01:36:52;103132.88;;;19.04;32.93
74228;BME280;62587;52.352;5.006;2023-03-01T01:39:19;103125.75;;;19.06;32.67
74228;BME280;62587;52.352;5.006;2023-03-01T01:41:45;103120.56;;;19.02;32.51
74228;BME280;62587;52.352;5.006;2023-03-01T01:47:10;103121.91;;;19.16;32.90
74228;BME280;62587;52.352;5.006;2023-03-01T01:49:57;103118.97;;;19.25;32.33
74228;BME280;62587;52.352;5.006;2023-03-01T01:52:26;103116.03;;;19.34;32.30
74228;BME280;62587;52.352;5.006;2023-03-01T01:55:05;103114.16;;;19.39;32.18
74228;BME280;62587;52.352;5.006;2023-03-01T01:57:38;103102.38;;;19.48;32.17
74228;BME280;62587;52.352;5.006;2023-03-01T02:00:08;103113.72;;;19.53;32.07
74228;BME280;62587;52.352;5.006;2023-03-01T02:02:36;103114.28;;;19.63;32.20
74228;BME280;62587;52.352;5.006;2023-03-01T02:05:11;103107.84;;;19.71;32.09
74228;BME280;62587;52.352;5.006;2023-03-01T02:07:40;103111.13;;;19.79;31.96
74228;BME280;62587;52.352;5.006;2023-03-01T02:10:07;103114.44;;;19.86;31.52
74228;BME280;62587;52.352;5.006;2023-03-01T02:12:33;103112.53;;;19.89;31.48
74228;BME280;62587;52.352;5.006;2023-03-01T02:14:59;103108.88;;;19.93;31.72
74228;BME280;62587;52.352;5.006;2023-03-01T02:17:24;103107.13;;;19.92;31.60
74228;BME280;62587;52.352;5.006;2023-03-01T02:22:35;103094.81;;;19.90;31.49
74228;BME280;62587;52.352;5.006;2023-03-01T02:30:35;103091.59;;;19.80;31.60
74228;BME280;62587;52.352;5.006;2023-03-01T02:33:03;103093.44;;;19.78;32.10
74228;BME280;62587;52.352;5.006;2023-03-01T02:35:38;103098.75;;;19.78;31.58
74228;BME280;62587;52.352;5.006;2023-03-01T02:38:06;103093.44;;;19.78;31.97
74228;BME280;62587;52.352;5.006;2023-03-01T02:40:33;103094.38;;;19.76;31.93
74228;BME280;62587;52.352;5.006;2023-03-01T02:42:59;103092.75;;;19.72;31.93
74228;BME280;62587;52.352;5.006;2023-03-01T02:45:25;103089.22;;;19.71;31.62
74228;BME280;62587;52.352;5.006;2023-03-01T02:47:55;103087.59;;;19.67;31.83
74228;BME280;62587;52.352;5.006;2023-03-01T02:55:27;103073.81;;;19.55;31.97
74228;BME280;62587;52.352;5.006;2023-03-01T02:57:53;103076.34;;;19.59;32.31
74228;BME280;62587;52.352;5.006;2023-03-01T03:00:25;103077.44;;;19.52;32.00
74228;BME280;62587;52.352;5.006;2023-03-01T03:02:53;103075.69;;;19.51;31.98
74228;BME280;62587;52.352;5.006;2023-03-01T03:05:24;103080.41;;;19.43;32.20
74228;BME280;62587;52.352;5.006;2023-03-01T03:07:51;103074.28;;;19.41;32.51
74228;BME280;62587;52.352;5.006;2023-03-01T03:10:22;103057.47;;;19.41;32.19
74228;BME280;62587;52.352;5.006;2023-03-01T03:13:09;103060.13;;;19.39;32.16
74228;BME280;62587;52.352;5.006;2023-03-01T03:15:35;103064.53;;;19.40;32.35
74228;BME280;62587;52.352;5.006;2023-03-01T03:18:02;103068.97;;;19.39;32.51
74228;BME280;62587;52.352;5.006;2023-03-01T03:20:28;103068.34;;;19.31;32.53
74228;BME280;62587;52.352;5.006;2023-03-01T03:22:55;103066.50;;;19.33;32.42
74228;BME280;62587;52.352;5.006;2023-03-01T03:25:22;103052.50;;;19.27;32.75
74228;BME280;62587;52.352;5.006;2023-03-01T03:27:49;103046.22;;;19.31;32.23
74228;BME280;62587;52.352;5.006;2023-03-01T03:30:17;103050.72;;;19.29;32.28
74228;BME280;62587;52.352;5.006;2023-03-01T03:32:44;103049.84;;;19.27;32.62
74228;BME280;62587;52.352;5.006;2023-03-01T03:35:19;103044.47;;;19.30;32.24
74228;BME280;62587;52.352;5.006;2023-03-01T03:37:45;103045.50;;;19.24;32.51
74228;BME280;62587;52.352;5.006;2023-03-01T03:40:35;103036.84;;;19.19;32.65
74228;BME280;62587;52.352;5.006;2023-03-01T03:43:02;103038.56;;;19.20;32.27
74228;BME280;62587;52.352;5.006;2023-03-01T03:45:28;103021.03;;;19.15;32.47
74228;BME280;62587;52.352;5.006;2023-03-01T03:47:54;103026.41;;;19.13;32.38
74228;BME280;62587;52.352;5.006;2023-03-01T03:50:19;103028.16;;;19.14;32.65
74228;BME280;62587;52.352;5.006;2023-03-01T03:52:45;103035.31;;;19.11;32.59
74228;BME280;62587;52.352;5.006;2023-03-01T03:55:11;103030.97;;;19.08;32.72
74228;BME280;62587;52.352;5.006;2023-03-01T03:57:38;103038.84;;;19.11;32.29
74228;BME280;62587;52.352;5.006;2023-03-01T04:00:06;103039.75;;;19.10;32.31
74228;BME280;62587;52.352;5.006;2023-03-01T04:02:39;103039.91;;;19.06;32.80
74228;BME280;62587;52.352;5.006;2023-03-01T04:05:05;103039.81;;;19.09;32.79
74228;BME280;62587;52.352;5.006;2023-03-01T04:07:30;103043.38;;;19.08;32.65
74228;BME280;62587;52.352;5.006;2023-03-01T04:09:55;103039.03;;;19.05;32.60
74228;BME280;62587;52.352;5.006;2023-03-01T04:12:21;103035.41;;;19.08;32.38
74228;BME280;62587;52.352;5.006;2023-03-01T04:14:48;103033.31;;;19.19;32.61
74228;BME280;62587;52.352;5.006;2023-03-01T04:17:13;103030.38;;;19.28;32.31
74228;BME280;62587;52.352;5.006;2023-03-01T04:19:39;103024.84;;;19.34;31.89
74228;BME280;62587;52.352;5.006;2023-03-01T04:22:04;103026.47;;;19.39;32.01
74228;BME280;62587;52.352;5.006;2023-03-01T04:24:37;103024.50;;;19.46;32.10
74228;BME280;62587;52.352;5.006;2023-03-01T04:27:02;103033.09;;;19.54;31.94
74228;BME280;62587;52.352;5.006;2023-03-01T04:29:28;103030.25;;;19.60;31.53
74228;BME280;62587;52.352;5.006;2023-03-01T04:31:53;103035.28;;;19.68;31.45
74228;BME280;62587;52.352;5.006;2023-03-01T04:34:19;103024.47;;;19.74;31.29
74228;BME280;62587;52.352;5.006;2023-03-01T04:36:44;103020.63;;;19.82;31.18
74228;BME280;62587;52.352;5.006;2023-03-01T04:39:10;103016.97;;;19.86;31.21
74228;BME280;62587;52.352;5.006;2023-03-01T04:41:39;103015.81;;;19.93;31.28
74228;BME280;62587;52.352;5.006;2023-03-01T04:44:05;103016.53;;;19.98;31.00
74228;BME280;62587;52.352;5.006;2023-03-01T04:46:31;103013.81;;;20.00;31.16
74228;BME280;62587;52.352;5.006;2023-03-01T04:48:56;103022.69;;;19.99;31.08
74228;BME280;62587;52.352;5.006;2023-03-01T04:51:22;103018.25;;;19.99;30.79
74228;BME280;62587;52.352;5.006;2023-03-01T04:53:48;103019.41;;;19.92;30.96
74228;BME280;62587;52.352;5.006;2023-03-01T04:56:13;103019.41;;;19.92;31.32
74228;BME280;62587;52.352;5.006;2023-03-01T04:58:39;103015.13;;;19.88;31.31
74228;BME280;62587;52.352;5.006;2023-03-01T05:01:09;103012.56;;;19.85;31.20
74228;BME280;62587;52.352;5.006;2023-03-01T05:03:40;103015.22;;;19.85;31.27
74228;BME280;62587;52.352;5.006;2023-03-01T05:06:06;103008.31;;;19.80;31.52
74228;BME280;62587;52.352;5.006;2023-03-01T05:08:31;103005.88;;;19.74;31.50
74228;BME280;62587;52.352;5.006;2023-03-01T05:10:59;103007.72;;;19.72;31.57
74228;BME280;62587;52.352;5.006;2023-03-01T05:13:24;102996.22;;;19.71;31.13
74228;BME280;62587;52.352;5.006;2023-03-01T05:15:58;102993.63;;;19.68;31.51
74228;BME280;62587;52.352;5.006;2023-03-01T05:18:25;102998.25;;;19.63;31.73
74228;BME280;62587;52.352;5.006;2023-03-01T05:20:54;102997.38;;;19.63;31.58
74228;BME280;62587;52.352;5.006;2023-03-01T05:23:22;102985.00;;;19.62;31.53
74228;BME280;62587;52.352;5.006;2023-03-01T05:25:47;102990.47;;;19.57;31.70
74228;BME280;62587;52.352;5.006;2023-03-01T05:28:14;102980.91;;;19.52;31.70
74228;BME280;62587;52.352;5.006;2023-03-01T05:30:40;102972.13;;;19.50;32.03
74228;BME280;62587;52.352;5.006;2023-03-01T05:33:07;102971.34;;;19.46;31.83
74228;BME280;62587;52.352;5.006;2023-03-01T05:35:43;102967.78;;;19.47;31.88
74228;BME280;62587;52.352;5.006;2023-03-01T05:38:10;102955.56;;;19.42;31.80
74228;BME280;62587;52.352;5.006;2023-03-01T05:40:40;102962.81;;;19.36;32.32
74228;BME280;62587;52.352;5.006;2023-03-01T05:43:07;102960.13;;;19.38;32.02
74228;BME280;62587;52.352;5.006;2023-03-01T05:45:35;102950.47;;;19.34;32.25
74228;BME280;62587;52.352;5.006;2023-03-01T05:48:03;102952.19;;;19.36;32.02
74228;BME280;62587;52.352;5.006;2023-03-01T05:50:32;102964.69;;;19.33;32.11
74228;BME280;62587;52.352;5.006;2023-03-01T05:52:59;102966.47;;;19.32;32.35
74228;BME280;62587;52.352;5.006;2023-03-01T05:55:25;102962.13;;;19.30;31.99
74228;BME280;62587;52.352;5.006;2023-03-01T05:57:51;102961.25;;;19.29;32.33
74228;BME280;62587;52.352;5.006;2023-03-01T06:00:18;102960.34;;;19.30;32.61
74228;BME280;62587;52.352;5.006;2023-03-01T06:02:45;102953.44;;;19.25;32.32
74228;BME280;62587;52.352;5.006;2023-03-01T06:05:11;102954.47;;;19.21;32.26
74228;BME280;62587;52.352;5.006;2023-03-01T06:07:38;102950.13;;;19.18;32.16
74228;BME280;62587;52.352;5.006;2023-03-01T06:10:04;102951.03;;;19.17;32.41
74228;BME280;62587;52.352;5.006;2023-03-01T06:12:34;102951.16;;;19.14;32.59
74228;BME280;62587;52.352;5.006;2023-03-01T06:15:00;102950.41;;;19.09;32.23
74228;BME280;62587;52.352;5.006;2023-03-01T06:17:29;102953.06;;;19.09;32.67
74228;BME280;62587;52.352;5.006;2023-03-01T06:19:55;102950.28;;;19.12;32.65
74228;BME280;62587;52.352;5.006;2023-03-01T06:22:20;102945.00;;;19.12;32.35
74228;BME280;62587;52.352;5.006;2023-03-01T06:24:45;102941.56;;;19.09;32.28
74228;BME280;62587;52.352;5.006;2023-03-01T06:27:11;102939.88;;;19.06;32.29
74228;BME280;62587;52.352;5.006;2023-03-01T06:29:36;102940.75;;;19.07;32.22
74228;BME280;62587;52.352;5.006;2023-03-01T06:32:02;102942.59;;;19.05;32.23
74228;BME280;62587;52.352;5.006;2023-03-01T06:34:28;102944.22;;;19.09;32.58
74228;BME280;62587;52.352;5.006;2023-03-01T06:36:53;102943.91;;;19.19;32.04
74228;BME280;62587;52.352;5.006;2023-03-01T06:39:18;102955.09;;;19.29;31.82
74228;BME280;62587;52.352;5.006;2023-03-01T06:41:44;102946.03;;;19.36;32.31
74228;BME280;62587;52.352;5.006;2023-03-01T06:44:09;102954.66;;;19.43;31.75
74228;BME280;62587;52.352;5.006;2023-03-01T06:46:35;102953.59;;;19.48;31.61
74228;BME280;62587;52.352;5.006;2023-03-01T06:49:00;102952.41;;;19.57;32.01
74228;BME280;62587;52.352;5.006;2023-03-01T06:51:26;102945.09;;;19.63;31.75
74228;BME280;62587;52.352;5.006;2023-03-01T06:53:51;102951.09;;;19.70;31.70
74228;BME280;62587;52.352;5.006;2023-03-01T06:56:16;102953.53;;;19.76;31.46
74228;BME280;62587;52.352;5.006;2023-03-01T06:58:42;102952.28;;;19.86;31.42
74228;BME280;62587;52.352;5.006;2023-03-01T07:01:08;102954.63;;;19.95;30.86
74228;BME280;62587;52.352;5.006;2023-03-01T07:03:34;102963.22;;;20.01;30.89
74228;BME280;62587;52.352;5.006;2023-03-01T07:05:59;102956.06;;;20.03;30.69
74228;BME280;62587;52.352;5.006;2023-03-01T07:08:25;102952.50;;;20.04;30.74
74228;BME280;62587;52.352;5.006;2023-03-01T07:10:57;102959.59;;;20.04;31.12
74228;BME280;62587;52.352;5.006;2023-03-01T07:13:23;102972.16;;;20.00;31.13
74228;BME280;62587;52.352;5.006;2023-03-01T07:15:48;102969.66;;;19.96;30.88
74228;BME280;62587;52.352;5.006;2023-03-01T07:18:13;102973.44;;;19.89;30.92
74228;BME280;62587;52.352;5.006;2023-03-01T07:20:39;102971.75;;;19.86;30.86
74228;BME280;62587;52.352;5.006;2023-03-01T07:23:05;102976.31;;;19.83;30.80
74228;BME280;62587;52.352;5.006;2023-03-01T07:25:31;102986.03;;;19.84;31.41
74228;BME280;62587;52.352;5.006;2023-03-01T07:27:57;102976.41;;;19.80;31.08
74228;BME280;62587;52.352;5.006;2023-03-01T07:30:23;102987.16;;;19.77;30.91
74228;BME280;62587;52.352;5.006;2023-03-01T07:32:51;102988.84;;;19.79;30.99
74228;BME280;62587;52.352;5.006;2023-03-01T07:35:17;102985.47;;;19.74;31.03
74228;BME280;62587;52.352;5.006;2023-03-01T07:37:42;102981.16;;;19.70;31.60
74228;BME280;62587;52.352;5.006;2023-03-01T07:40:08;102984.59;;;19.74;31.33
74228;BME280;62587;52.352;5.006;2023-03-01T07:42:33;102990.63;;;19.79;31.17
74228;BME280;62587;52.352;5.006;2023-03-01T07:44:59;102980.72;;;19.84;30.88
74228;BME280;62587;52.352;5.006;2023-03-01T07:47:24;102981.44;;;19.89;31.17
74228;BME280;62587;52.352;5.006;2023-03-01T07:49:49;102983.13;;;19.91;30.68
74228;BME280;62587;52.352;5.006;2023-03-01T07:52:15;102979.41;;;19.95;30.85
74228;BME280;62587;52.352;5.006;2023-03-01T07:54:42;102981.84;;;20.01;30.62
74228;BME280;62587;52.352;5.006;2023-03-01T07:57:09;102984.41;;;20.04;30.79
74228;BME280;62587;52.352;5.006;2023-03-01T07:59:34;102979.69;;;20.13;30.79
74228;BME280;62587;52.352;5.006;2023-03-01T08:01:59;102985.59;;;20.22;30.64
74228;BME280;62587;52.352;5.006;2023-03-01T08:04:25;102984.47;;;20.28;30.60
74228;BME280;62587;52.352;5.006;2023-03-01T08:06:52;102988.72;;;20.33;30.27
74228;BME280;62587;52.352;5.006;2023-03-01T08:09:17;102991.19;;;20.38;30.55
74228;BME280;62587;52.352;5.006;2023-03-01T08:11:43;102992.00;;;20.40;30.09
74228;BME280;62587;52.352;5.006;2023-03-01T08:14:08;102988.34;;;20.44;30.78
74228;BME280;62587;52.352;5.006;2023-03-01T08:16:34;102983.81;;;20.46;30.56
74228;BME280;62587;52.352;5.006;2023-03-01T08:19:11;102980.97;;;20.50;30.55
74228;BME280;62587;52.352;5.006;2023-03-01T08:21:37;102980.88;;;20.53;30.50
74228;BME280;62587;52.352;5.006;2023-03-01T08:24:05;102980.72;;;20.56;30.51
74228;BME280;62587;52.352;5.006;2023-03-01T08:26:31;102974.50;;;20.57;30.66
74228;BME280;62587;52.352;5.006;2023-03-01T08:28:56;102978.94;;;20.57;30.84
74228;BME280;62587;52.352;5.006;2023-03-01T08:31:27;102978.03;;;20.58;30.70
74228;BME280;62587;52.352;5.006;2023-03-01T08:33:55;102969.19;;;20.57;30.82
74228;BME280;62587;52.352;5.006;2023-03-01T08:36:25;102970.06;;;20.58;31.31
74228;BME280;62587;52.352;5.006;2023-03-01T08:38:51;102974.31;;;20.62;32.60
74228;BME280;62587;52.352;5.006;2023-03-01T08:41:17;102976.06;;;20.63;32.58
74228;BME280;62587;52.352;5.006;2023-03-01T08:43:43;102978.72;;;20.63;32.43
74228;BME280;62587;52.352;5.006;2023-03-01T08:46:08;102970.56;;;20.67;32.35
74228;BME280;62587;52.352;5.006;2023-03-01T08:48:34;102968.72;;;20.69;32.27
74228;BME280;62587;52.352;5.006;2023-03-01T08:51:16;102967.53;;;20.77;32.11
74228;BME280;62587;52.352;5.006;2023-03-01T08:53:42;102972.81;;;20.78;31.73
74228;BME280;62587;52.352;5.006;2023-03-01T08:56:09;102964.78;;;20.80;31.83
74228;BME280;62587;52.352;5.006;2023-03-01T08:58:35;102968.94;;;20.87;31.65
74228;BME280;62587;52.352;5.006;2023-03-01T09:01:06;102963.50;;;20.90;31.33
74228;BME280;62587;52.352;5.006;2023-03-01T09:03:32;102960.75;;;20.91;31.47
74228;BME280;62587;52.352;5.006;2023-03-01T09:06:01;102958.66;;;20.99;30.93
74228;BME280;62587;52.352;5.006;2023-03-01T09:08:27;102948.69;;;21.04;31.06
74228;BME280;62587;52.352;5.006;2023-03-01T09:10:53;102941.56;;;21.06;31.17
74228;BME280;62587;52.352;5.006;2023-03-01T09:13:18;102940.56;;;21.09;30.91
74228;BME280;62587;52.352;5.006;2023-03-01T09:15:43;102945.88;;;21.09;30.77
74228;BME280;62587;52.352;5.006;2023-03-01T09:18:09;102945.06;;;21.07;31.06
74228;BME280;62587;52.352;5.006;2023-03-01T09:20:34;102948.66;;;21.06;30.72
74228;BME280;62587;52.352;5.006;2023-03-01T09:22:59;102946.91;;;21.05;30.64
74228;BME280;62587;52.352;5.006;2023-03-01T09:25:25;102941.72;;;21.02;31.03
74228;BME280;62587;52.352;5.006;2023-03-01T09:27:54;102939.09;;;21.00;31.26
74228;BME280;62587;52.352;5.006;2023-03-01T09:30:20;102937.41;;;20.98;31.23
74228;BME280;62587;52.352;5.006;2023-03-01T09:32:46;102938.16;;;21.01;31.23
74228;BME280;62587;52.352;5.006;2023-03-01T09:35:12;102943.41;;;21.03;31.65
74228;BME280;62587;52.352;5.006;2023-03-01T09:37:38;102941.47;;;21.08;31.53
74228;BME280;62587;52.352;5.006;2023-03-01T09:40:20;102937.47;;;20.96;32.03
74228;BME280;62587;52.352;5.006;2023-03-01T09:42:51;102937.41;;;20.98;32.03
74228;BME280;62587;52.352;5.006;2023-03-01T09:45:26;102938.09;;;21.03;31.89
74228;BME280;62587;52.352;5.006;2023-03-01T09:47:54;102941.47;;;21.08;31.82
74228;BME280;62587;52.352;5.006;2023-03-01T09:50:21;102940.38;;;21.13;31.57
74228;BME280;62587;52.352;5.006;2023-03-01T09:53:03;102936.72;;;21.16;31.40
74228;BME280;62587;52.352;5.006;2023-03-01T09:58:46;102923.63;;;21.31;31.65
74228;BME280;62587;52.352;5.006;2023-03-01T10:01:38;102930.63;;;21.34;31.75
74228;BME280;62587;52.352;5.006;2023-03-01T10:09:46;102926.72;;;21.43;31.85
74228;BME280;62587;52.352;5.006;2023-03-01T10:12:16;102931.97;;;21.44;31.66
74228;BME280;62587;52.352;5.006;2023-03-01T10:15:15;102927.44;;;21.46;31.82
74228;BME280;62587;52.352;5.006;2023-03-01T10:17:44;102930.19;;;21.45;31.84
74228;BME280;62587;52.352;5.006;2023-03-01T10:20:24;102919.56;;;21.43;32.12
74228;BME280;62587;52.352;5.006;2023-03-01T10:22:51;102922.22;;;21.43;32.53
74228;BME280;62587;52.352;5.006;2023-03-01T10:28:12;102920.44;;;21.44;33.14
74228;BME280;62587;52.352;5.006;2023-03-01T10:30:40;102916.69;;;21.48;33.35
74228;BME280;62587;52.352;5.006;2023-03-01T10:33:23;102914.78;;;21.51;33.63
74228;BME280;62587;52.352;5.006;2023-03-01T10:35:50;102914.88;;;21.50;33.79
74228;BME280;62587;52.352;5.006;2023-03-01T10:38:17;102905.03;;;21.50;33.95
74228;BME280;62587;52.352;5.006;2023-03-01T10:41:00;102897.25;;;21.46;34.16
74228;BME280;62587;52.352;5.006;2023-03-01T10:43:43;102894.91;;;21.38;34.24
74228;BME280;62587;52.352;5.006;2023-03-01T10:46:30;102890.41;;;21.40;34.55
74228;BME280;62587;52.352;5.006;2023-03-01T10:49:22;102887.66;;;21.42;34.26
74228;BME280;62587;52.352;5.006;2023-03-01T10:51:50;102893.31;;;21.34;34.42
74228;BME280;62587;52.352;5.006;2023-03-01T10:56:47;102877.84;;;21.22;34.58
74228;BME280;62587;52.352;5.006;2023-03-01T10:59:22;102881.50;;;21.19;34.73
74228;BME280;62587;52.352;5.006;2023-03-01T11:02:20;102878.03;;;21.17;35.09
74228;BME280;62587;52.352;5.006;2023-03-01T11:05:17;102875.25;;;21.20;35.13
74228;BME280;62587;52.352;5.006;2023-03-01T11:08:00;102873.31;;;21.24;35.02
74228;BME280;62587;52.352;5.006;2023-03-01T11:10:32;102868.63;;;21.30;35.19
74228;BME280;62587;52.352;5.006;2023-03-01T11:13:18;102871.00;;;21.36;35.23
74228;BME280;62587;52.352;5.006;2023-03-01T11:16:07;102873.53;;;21.40;34.93
74228;BME280;62587;52.352;5.006;2023-03-01T11:18:35;102861.81;;;21.44;35.05
74228;BME280;62587;52.352;5.006;2023-03-01T11:21:01;102860.72;;;21.48;35.22
74228;BME280;62587;52.352;5.006;2023-03-01T11:23:29;102861.47;;;21.51;35.01
74228;BME280;62587;52.352;5.006;2023-03-01T11:26:00;102847.06;;;21.55;35.26
74228;BME280;62587;52.352;5.006;2023-03-01T11:28:28;102850.53;;;21.57;35.07
74228;BME280;62587;52.352;5.006;2023-03-01T11:31:01;102844.19;;;21.60;34.93
74228;BME280;62587;52.352;5.006;2023-03-01T11:36:04;102839.50;;;21.66;35.27
74228;BME280;62587;52.352;5.006;2023-03-01T11:38:34;102840.31;;;21.67;35.15
74228;BME280;62587;52.352;5.006;2023-03-01T11:41:23;102834.88;;;21.70;35.15
74228;BME280;62587;52.352;5.006;2023-03-01T11:44:02;102829.53;;;21.70;35.39
74228;BME280;62587;52.352;5.006;2023-03-01T11:49:03;102835.75;;;21.70;35.39
74228;BME280;62587;52.352;5.006;2023-03-01T12:08:22;102810.75;;;21.73;35.64
74228;BME280;62587;52.352;5.006;2023-03-01T12:11:00;102812.50;;;21.74;36.01
74228;BME280;62587;52.352;5.006;2023-03-01T12:22:31;102803.44;;;21.58;36.28
74228;BME280;62587;52.352;5.006;2023-03-01T12:28:04;102796.59;;;21.52;36.42
74228;BME280;62587;52.352;5.006;2023-03-01T12:41:01;102779.41;;;21.39;36.57
74228;BME280;62587;52.352;5.006;2023-03-01T12:46:37;102782.28;;;21.34;36.68
74228;BME280;62587;52.352;5.006;2023-03-01T12:51:38;102780.59;;;21.32;36.65
74228;BME280;62587;52.352;5.006;2023-03-01T12:54:15;102781.59;;;21.29;36.68
74228;BME280;62587;52.352;5.006;2023-03-01T12:56:41;102779.03;;;21.28;36.59
74228;BME280;62587;52.352;5.006;2023-03-01T13:01:41;102773.91;;;21.23;36.79
74228;BME280;62587;52.352;5.006;2023-03-01T13:04:28;102760.63;;;21.22;36.51
74228;BME280;62587;52.352;5.006;2023-03-01T13:07:32;102764.22;;;21.21;36.60
74228;BME280;62587;52.352;5.006;2023-03-01T13:17:49;102741.38;;;21.15;36.78
74228;BME280;62587;52.352;5.006;2023-03-01T13:20:17;102744.13;;;21.14;36.63
74228;BME280;62587;52.352;5.006;2023-03-01T13:22:45;102749.50;;;21.12;36.60
74228;BME280;62587;52.352;5.006;2023-03-01T13:25:17;102740.72;;;21.10;36.80
74228;BME280;62587;52.352;5.006;2023-03-01T13:27:44;102737.19;;;21.10;36.64
74228;BME280;62587;52.352;5.006;2023-03-01T13:30:45;102724.84;;;21.07;36.74
74228;BME280;62587;52.352;5.006;2023-03-01T13:35:49;102709.94;;;21.03;36.61
74228;BME280;62587;52.352;5.006;2023-03-01T13:38:44;102717.03;;;21.03;36.71
74228;BME280;62587;52.352;5.006;2023-03-01T13:41:11;102707.34;;;21.02;36.85
74228;BME280;62587;52.352;5.006;2023-03-01T13:43:40;102706.47;;;21.01;36.71
74228;BME280;62587;52.352;5.006;2023-03-01T13:46:20;102703.84;;;21.00;36.83
74228;BME280;62587;52.352;5.006;2023-03-01T13:48:50;102706.59;;;20.98;36.81
74228;BME280;62587;52.352;5.006;2023-03-01T13:51:21;102701.34;;;20.97;36.84
74228;BME280;62587;52.352;5.006;2023-03-01T13:53:48;102697.81;;;20.96;37.05
74228;BME280;62587;52.352;5.006;2023-03-01T13:56:24;102697.03;;;20.94;36.84
74228;BME280;62587;52.352;5.006;2023-03-01T13:59:18;102695.34;;;20.92;37.08
74228;BME280;62587;52.352;5.006;2023-03-01T14:01:44;102697.16;;;20.91;36.94
74228;BME280;62587;52.352;5.006;2023-03-01T14:04:27;102687.41;;;20.90;37.19
74228;BME280;62587;52.352;5.006;2023-03-01T14:07:31;102690.16;;;20.89;37.14
74228;BME280;62587;52.352;5.006;2023-03-01T14:10:02;102676.84;;;20.89;36.65
74228;BME280;62587;52.352;5.006;2023-03-01T14:12:51;102670.72;;;20.87;36.93
74228;BME280;62587;52.352;5.006;2023-03-01T14:15:29;102666.41;;;20.84;36.60
74228;BME280;62587;52.352;5.006;2023-03-01T14:18:02;102657.63;;;20.82;37.02
74228;BME280;62587;52.352;5.006;2023-03-01T14:20:37;102654.00;;;20.83;36.97
74228;BME280;62587;52.352;5.006;2023-03-01T14:23:10;102646.97;;;20.82;37.10
74228;BME280;62587;52.352;5.006;2023-03-01T14:25:37;102646.97;;;20.82;36.87
74228;BME280;62587;52.352;5.006;2023-03-01T14:28:14;102647.88;;;20.81;37.07
74228;BME280;62587;52.352;5.006;2023-03-01T14:33:36;102637.25;;;20.81;36.84
74228;BME280;62587;52.352;5.006;2023-03-01T14:36:08;102634.66;;;20.80;36.73
74228;BME280;62587;52.352;5.006;2023-03-01T14:38:42;102630.25;;;20.79;36.77